Time;durP1;ratioP1;P1;durP2;ratioP2;P2;SDS_P1;SDS_P2;PMS_P1;PMS_P2;Temp;Humidity;BMP_temperature;BMP_pressure;BME280_temperature;BME280_humidity;BME280_pressure;Samples;Min_cycle;Max_cycle;Signal;HPM_P1;HPM_P2
2023/07/05 00:02:03;;;;;;;9.07;6.57;;;;;;;;;;4390953;32;337013;-94
2023/07/05 00:04:30;;;;;;;9.68;6.37;;;;;;;;;;4403563;32;316800;-92
2023/07/05 00:07:00;;;;;;;14.00;6.45;;;;;;;;;;4389795;32;316761;-92
2023/07/05 00:09:27;;;;;;;7.53;6.70;;;;;;;;;;4402148;32;317888;-94
2023/07/05 00:11:56;;;;;;;11.55;5.37;;;;;;;;;;4390217;32;317178;-87
2023/07/05 00:14:23;;;;;;;7.80;5.20;;;;;;;;;;4402947;32;317745;-92
2023/07/05 00:16:51;;;;;;;9.70;5.90;;;;;;;;;;4403048;32;316477;-93
2023/07/05 00:19:18;;;;;;;10.20;6.37;;;;;;;;;;4389316;32;416178;-93
2023/07/05 00:21:46;;;;;;;8.73;6.05;;;;;;;;;;4402498;32;317788;-93
2023/07/05 00:24:17;;;;;;;7.00;5.75;;;;;;;;;;4390525;32;357521;-92
2023/07/05 00:26:44;;;;;;;10.00;6.47;;;;;;;;;;4400989;32;316467;-90
2023/07/05 00:29:12;;;;;;;7.93;5.70;;;;;;;;;;4390445;32;317693;-93
2023/07/05 00:31:39;;;;;;;7.55;5.70;;;;;;;;;;4401538;32;316683;-92
2023/07/05 00:34:07;;;;;;;13.32;5.62;;;;;;;;;;4393039;32;316709;-92
2023/07/05 00:36:34;;;;;;;12.05;6.95;;;;;;;;;;4403721;32;317819;-93
2023/07/05 00:39:02;;;;;;;11.68;5.60;;;;;;;;;;4393001;32;318150;-92
2023/07/05 00:41:31;;;;;;;7.72;5.90;;;;;;;;;;4400757;32;317639;-92
2023/07/05 00:43:58;;;;;;;9.93;5.40;;;;;;;;;;4387671;32;316619;-94
2023/07/05 00:46:30;;;;;;;9.88;4.80;;;;;;;;;;4402352;32;317093;-88
2023/07/05 00:49:04;;;;;;;9.43;5.32;;;;;;;;;;4388295;32;316612;-92
2023/07/05 00:51:39;;;;;;;9.48;5.53;;;;;;;;;;4401097;32;316726;-87
2023/07/05 00:54:07;;;;;;;7.43;5.22;;;;;;;;;;4392257;32;317138;-88
2023/07/05 00:56:41;;;;;;;7.62;6.03;;;;;;;;;;4401146;32;316577;-91
2023/07/05 00:59:09;;;;;;;9.75;6.03;;;;;;;;;;4392275;32;316834;-87
2023/07/05 01:01:37;;;;;;;8.93;6.00;;;;;;;;;;4408693;32;206881;-87
2023/07/05 01:04:06;;;;;;;7.23;5.60;;;;;;;;;;4387874;32;317036;-87
2023/07/05 01:06:33;;;;;;;7.30;5.40;;;;;;;;;;4401826;32;316716;-92
2023/07/05 01:09:04;;;;;;;6.13;5.37;;;;;;;;;;4400601;32;208030;-87
2023/07/05 01:11:34;;;;;;;9.18;6.32;;;;;;;;;;4401366;32;317036;-88
2023/07/05 01:14:10;;;;;;;6.45;5.78;;;;;;;;;;4401605;32;207889;-87
2023/07/05 01:16:53;;;;;;;9.75;5.75;;;;;;;;;;4402410;32;316834;-94
2023/07/05 01:19:51;;;;;;;7.93;5.70;;;;;;;;;;4388545;32;416174;-94
2023/07/05 01:22:35;;;;;;;6.90;5.22;;;;;;;;;;4388534;32;417326;-92
2023/07/05 01:25:32;;;;;;;6.28;5.65;;;;;;;;;;4391970;32;316550;-87
2023/07/05 01:28:20;;;;;;;8.43;5.70;;;;;;;;;;4390805;32;316724;-89
2023/07/05 01:31:15;;;;;;;7.80;5.47;;;;;;;;;;4400820;32;316776;-87
2023/07/05 01:33:52;;;;;;;6.82;5.45;;;;;;;;;;4389263;32;416972;-93
2023/07/05 01:36:21;;;;;;;8.20;5.90;;;;;;;;;;4388136;32;417185;-95
2023/07/05 01:38:48;;;;;;;6.55;5.75;;;;;;;;;;4401158;32;345071;-95
2023/07/05 01:41:15;;;;;;;8.55;5.35;;;;;;;;;;4389898;32;317329;-89
2023/07/05 01:43:45;;;;;;;7.15;5.47;;;;;;;;;;4401559;32;317022;-88
2023/07/05 01:46:23;;;;;;;8.10;6.12;;;;;;;;;;4392003;32;316699;-88
2023/07/05 01:49:13;;;;;;;8.68;5.68;;;;;;;;;;4402103;32;317308;-88
2023/07/05 01:51:48;;;;;;;7.70;5.37;;;;;;;;;;4388234;32;416854;-87
2023/07/05 01:54:21;;;;;;;7.72;6.05;;;;;;;;;;4392145;32;316611;-89
2023/07/05 01:56:55;;;;;;;10.32;5.72;;;;;;;;;;4400939;32;317015;-88
2023/07/05 01:59:27;;;;;;;7.40;5.87;;;;;;;;;;4389111;32;418245;-94
2023/07/05 02:01:58;;;;;;;14.27;6.00;;;;;;;;;;4391159;32;316562;-94
2023/07/05 02:04:28;;;;;;;12.05;5.72;;;;;;;;;;4399609;32;317847;-87
2023/07/05 02:06:55;;;;;;;7.03;5.37;;;;;;;;;;4389893;32;318097;-88
2023/07/05 02:09:23;;;;;;;8.63;6.30;;;;;;;;;;4401482;32;316642;-87
2023/07/05 02:11:50;;;;;;;7.07;5.12;;;;;;;;;;4400879;32;316834;-93
2023/07/05 02:14:17;;;;;;;17.90;6.30;;;;;;;;;;4391448;32;316666;-87
2023/07/05 02:16:45;;;;;;;15.82;5.90;;;;;;;;;;4401896;32;317672;-89
2023/07/05 02:19:12;;;;;;;10.13;5.15;;;;;;;;;;4389551;32;317649;-95
2023/07/05 02:21:41;;;;;;;7.90;5.55;;;;;;;;;;4401666;32;317805;-95
2023/07/05 02:24:09;;;;;;;7.05;6.12;;;;;;;;;;4391077;32;316587;-92
2023/07/05 02:26:36;;;;;;;9.82;5.53;;;;;;;;;;4399877;32;317041;-88
2023/07/05 02:29:04;;;;;;;6.95;5.85;;;;;;;;;;4390642;32;316620;-95
2023/07/05 02:31:31;;;;;;;8.50;5.95;;;;;;;;;;4399949;32;316646;-89
2023/07/05 02:33:58;;;;;;;8.05;5.37;;;;;;;;;;4391058;32;316602;-87
2023/07/05 02:36:29;;;;;;;10.70;5.78;;;;;;;;;;4402631;32;316943;-90
2023/07/05 02:38:58;;;;;;;6.28;5.30;;;;;;;;;;4391306;32;317913;-91
2023/07/05 02:41:25;;;;;;;12.50;6.78;;;;;;;;;;4400972;32;316845;-89
2023/07/05 02:43:53;;;;;;;6.70;5.60;;;;;;;;;;4401296;32;318057;-96
2023/07/05 02:46:22;;;;;;;6.97;5.90;;;;;;;;;;4388055;32;416016;-96
2023/07/05 02:48:50;;;;;;;15.27;5.32;;;;;;;;;;4402181;32;316598;-94
2023/07/05 02:51:17;;;;;;;17.77;6.55;;;;;;;;;;4393626;32;317704;-92
2023/07/05 02:53:44;;;;;;;11.50;5.43;;;;;;;;;;4404843;32;317814;-92
2023/07/05 02:56:16;;;;;;;14.80;5.97;;;;;;;;;;4394549;32;317749;-87
2023/07/05 02:58:43;;;;;;;17.55;6.45;;;;;;;;;;4404058;32;317604;-87
2023/07/05 03:01:11;;;;;;;15.77;6.60;;;;;;;;;;4394118;32;318075;-92
2023/07/05 03:03:38;;;;;;;7.90;6.50;;;;;;;;;;4404754;32;321340;-87
2023/07/05 03:06:06;;;;;;;7.43;5.75;;;;;;;;;;4393712;32;316488;-89
2023/07/05 03:08:33;;;;;;;11.05;6.22;;;;;;;;;;4405040;32;316731;-87
2023/07/05 03:11:01;;;;;;;8.95;6.75;;;;;;;;;;4395779;32;317688;-86
2023/07/05 03:13:33;;;;;;;10.45;6.00;;;;;;;;;;4407774;32;316866;-94
2023/07/05 03:16:01;;;;;;;10.88;6.32;;;;;;;;;;4394804;32;317834;-86
2023/07/05 03:18:29;;;;;;;7.05;5.80;;;;;;;;;;4403760;32;318094;-87
2023/07/05 03:20:57;;;;;;;11.35;6.65;;;;;;;;;;4394367;32;316697;-87
2023/07/05 03:23:24;;;;;;;7.78;6.07;;;;;;;;;;4404169;32;317736;-86
2023/07/05 03:25:57;;;;;;;9.45;6.68;;;;;;;;;;4403190;32;316681;-87
2023/07/05 03:28:25;;;;;;;8.90;6.50;;;;;;;;;;4389727;32;416796;-87
2023/07/05 03:31:00;;;;;;;7.80;6.53;;;;;;;;;;4403465;32;317087;-95
2023/07/05 03:33:28;;;;;;;7.70;6.28;;;;;;;;;;4390705;32;416133;-88
2023/07/05 03:35:58;;;;;;;9.38;7.93;;;;;;;;;;4393318;32;316843;-87
2023/07/05 03:38:28;;;;;;;20.70;10.75;;;;;;;;;;4403622;32;316860;-87
2023/07/05 03:41:00;;;;;;;14.38;8.57;;;;;;;;;;4393794;32;318917;-87
2023/07/05 03:43:29;;;;;;;10.98;7.05;;;;;;;;;;4401056;32;317718;-87
2023/07/05 03:46:00;;;;;;;9.27;6.57;;;;;;;;;;4392768;32;317860;-87
2023/07/05 03:48:30;;;;;;;10.27;7.10;;;;;;;;;;4402110;32;316678;-87
2023/07/05 03:50:58;;;;;;;8.82;7.47;;;;;;;;;;4389411;32;317815;-88
2023/07/05 03:53:26;;;;;;;12.50;10.57;;;;;;;;;;4402960;32;316510;-95
2023/07/05 03:55:53;;;;;;;14.13;11.60;;;;;;;;;;4403869;32;318840;-96
2023/07/05 03:58:21;;;;;;;12.48;9.60;;;;;;;;;;4390360;32;418329;-96
2023/07/05 04:00:49;;;;;;;14.05;8.88;;;;;;;;;;4402473;32;317961;-88
2023/07/05 04:03:18;;;;;;;10.43;8.68;;;;;;;;;;4392320;32;317568;-89
2023/07/05 04:05:45;;;;;;;13.57;8.18;;;;;;;;;;4402619;32;327264;-86
2023/07/05 04:08:13;;;;;;;11.25;6.55;;;;;;;;;;4393348;32;317763;-88
2023/07/05 04:10:47;;;;;;;8.80;7.40;;;;;;;;;;4403763;32;317919;-87
2023/07/05 04:13:15;;;;;;;10.07;7.30;;;;;;;;;;4393143;32;316906;-87
2023/07/05 04:15:43;;;;;;;13.15;7.90;;;;;;;;;;4402691;32;317915;-87
2023/07/05 04:18:10;;;;;;;7.72;6.55;;;;;;;;;;4393228;32;317674;-95
2023/07/05 04:20:39;;;;;;;12.93;6.50;;;;;;;;;;4402296;32;316832;-96
2023/07/05 04:23:17;;;;;;;11.68;6.53;;;;;;;;;;4390934;32;318100;-93
2023/07/05 04:25:45;;;;;;;11.02;6.55;;;;;;;;;;4403072;32;317710;-88
2023/07/05 04:28:13;;;;;;;11.60;6.60;;;;;;;;;;4390229;32;317641;-91
2023/07/05 04:30:43;;;;;;;9.07;7.32;;;;;;;;;;4402637;32;317648;-92
2023/07/05 04:33:11;;;;;;;8.40;5.60;;;;;;;;;;4391249;32;316911;-93
2023/07/05 04:35:46;;;;;;;8.85;6.87;;;;;;;;;;4402961;32;316465;-96
2023/07/05 04:38:14;;;;;;;10.07;7.07;;;;;;;;;;4392836;32;316947;-96
2023/07/05 04:40:42;;;;;;;9.20;5.87;;;;;;;;;;4402338;32;317527;-89
2023/07/05 04:43:09;;;;;;;8.50;6.03;;;;;;;;;;4392051;32;316600;-96
2023/07/05 04:45:37;;;;;;;11.07;6.55;;;;;;;;;;4401592;32;316681;-91
2023/07/05 04:48:04;;;;;;;7.28;6.18;;;;;;;;;;4392587;32;317729;-92
2023/07/05 04:50:31;;;;;;;8.63;6.18;;;;;;;;;;4392687;32;323001;-91
2023/07/05 04:53:01;;;;;;;8.75;6.55;;;;;;;;;;4392912;32;316616;-95
2023/07/05 04:55:28;;;;;;;12.98;7.75;;;;;;;;;;4398998;32;347467;-91
2023/07/05 04:57:56;;;;;;;8.93;7.00;;;;;;;;;;4390777;32;317738;-89
2023/07/05 05:00:24;;;;;;;8.10;6.57;;;;;;;;;;4402681;32;317029;-96
2023/07/05 05:02:52;;;;;;;8.95;6.10;;;;;;;;;;4401370;32;316821;-88
2023/07/05 05:05:19;;;;;;;9.50;7.53;;;;;;;;;;4389702;32;415937;-89
2023/07/05 05:07:49;;;;;;;15.77;8.00;;;;;;;;;;4401398;32;317110;-87
2023/07/05 05:10:18;;;;;;;10.93;8.43;;;;;;;;;;4392552;32;317972;-88
2023/07/05 05:12:45;;;;;;;9.00;7.80;;;;;;;;;;4401236;32;318024;-88
2023/07/05 05:15:13;;;;;;;9.18;7.20;;;;;;;;;;4391933;32;316836;-87
2023/07/05 05:17:41;;;;;;;10.00;6.43;;;;;;;;;;4399599;32;316737;-91
2023/07/05 05:20:09;;;;;;;14.00;7.07;;;;;;;;;;4391803;32;317509;-91
2023/07/05 05:22:37;;;;;;;8.43;6.53;;;;;;;;;;4400721;32;328525;-88
2023/07/05 05:25:05;;;;;;;9.65;7.93;;;;;;;;;;4391240;32;316768;-88
2023/07/05 05:27:34;;;;;;;7.25;5.93;;;;;;;;;;4402370;32;316861;-88
2023/07/05 05:30:01;;;;;;;7.82;6.75;;;;;;;;;;4392074;32;316938;-87
2023/07/05 05:32:28;;;;;;;8.75;5.90;;;;;;;;;;4401131;32;316786;-92
2023/07/05 05:34:56;;;;;;;7.57;6.60;;;;;;;;;;4388568;32;316734;-90
2023/07/05 05:37:23;;;;;;;8.18;7.03;;;;;;;;;;4402020;32;316651;-93
2023/07/05 05:39:51;;;;;;;10.55;6.55;;;;;;;;;;4399585;32;316977;-88
2023/07/05 05:42:18;;;;;;;8.52;7.12;;;;;;;;;;4391785;32;317703;-89
2023/07/05 05:44:47;;;;;;;16.12;7.90;;;;;;;;;;4400314;32;328515;-94
2023/07/05 05:47:14;;;;;;;16.33;7.55;;;;;;;;;;4389069;32;317606;-92
2023/07/05 05:49:42;;;;;;;12.93;8.07;;;;;;;;;;4401489;32;318045;-89
2023/07/05 05:52:10;;;;;;;8.90;7.90;;;;;;;;;;4389704;32;321206;-89
2023/07/05 05:54:37;;;;;;;10.85;7.70;;;;;;;;;;4400704;32;346254;-89
2023/07/05 05:57:05;;;;;;;29.80;12.85;;;;;;;;;;4391179;32;317798;-88
2023/07/05 05:59:33;;;;;;;14.63;8.25;;;;;;;;;;4402073;32;319025;-89
2023/07/05 06:02:02;;;;;;;18.37;7.93;;;;;;;;;;4389961;32;317651;-90
2023/07/05 06:04:29;;;;;;;10.07;7.68;;;;;;;;;;4401548;32;317569;-89
2023/07/05 06:06:57;;;;;;;10.43;7.05;;;;;;;;;;4391604;32;317593;-90
2023/07/05 06:09:25;;;;;;;13.90;7.75;;;;;;;;;;4400393;32;317524;-92
2023/07/05 06:11:52;;;;;;;9.13;7.60;;;;;;;;;;4400936;32;317472;-90
2023/07/05 06:14:19;;;;;;;9.73;7.65;;;;;;;;;;4387443;32;415647;-85
2023/07/05 06:16:47;;;;;;;14.87;7.82;;;;;;;;;;4399003;32;317066;-85
2023/07/05 06:19:16;;;;;;;8.18;6.90;;;;;;;;;;4390971;32;317668;-85
2023/07/05 06:21:43;;;;;;;12.43;8.88;;;;;;;;;;4401106;32;317149;-85
2023/07/05 06:24:11;;;;;;;18.42;7.75;;;;;;;;;;4390806;32;318076;-85
2023/07/05 06:26:38;;;;;;;15.52;7.37;;;;;;;;;;4404234;32;318029;-85
2023/07/05 06:29:06;;;;;;;10.13;7.82;;;;;;;;;;4393778;32;328190;-85
2023/07/05 06:31:33;;;;;;;9.90;7.40;;;;;;;;;;4404383;32;317762;-81
2023/07/05 06:34:01;;;;;;;8.98;7.18;;;;;;;;;;4391355;32;316702;-84
2023/07/05 06:36:30;;;;;;;13.07;8.13;;;;;;;;;;4404442;32;316788;-86
2023/07/05 06:38:57;;;;;;;10.60;7.35;;;;;;;;;;4394318;32;317747;-82
2023/07/05 06:41:24;;;;;;;9.27;8.00;;;;;;;;;;4403072;32;355649;-82
2023/07/05 06:43:52;;;;;;;8.75;7.75;;;;;;;;;;4403514;32;316758;-82
2023/07/05 06:46:19;;;;;;;14.20;8.15;;;;;;;;;;4390858;32;416250;-82
2023/07/05 06:48:47;;;;;;;12.82;7.70;;;;;;;;;;4403265;32;317751;-82
2023/07/05 06:51:14;;;;;;;13.77;6.87;;;;;;;;;;4393561;32;317709;-83
2023/07/05 06:53:43;;;;;;;8.73;7.12;;;;;;;;;;4404705;32;317825;-80
2023/07/05 06:56:10;;;;;;;8.82;7.60;;;;;;;;;;4393339;32;341662;-80
2023/07/05 06:58:38;;;;;;;8.95;6.75;;;;;;;;;;4403425;32;316955;-80
2023/07/05 07:01:06;;;;;;;9.55;7.57;;;;;;;;;;4393620;32;316740;-82
2023/07/05 07:03:33;;;;;;;10.50;6.47;;;;;;;;;;4403576;32;316778;-86
2023/07/05 07:06:00;;;;;;;12.63;7.97;;;;;;;;;;4392703;32;317691;-86
2023/07/05 07:08:31;;;;;;;11.48;8.20;;;;;;;;;;4403849;32;317658;-86
2023/07/05 07:11:02;;;;;;;11.12;7.70;;;;;;;;;;4393722;32;318087;-85
2023/07/05 07:13:29;;;;;;;9.10;8.20;;;;;;;;;;4404027;32;317619;-85
2023/07/05 07:16:01;;;;;;;12.55;9.43;;;;;;;;;;4390716;32;316952;-86
2023/07/05 07:18:28;;;;;;;14.75;9.10;;;;;;;;;;4403855;32;317546;-84
2023/07/05 07:20:56;;;;;;;11.43;8.85;;;;;;;;;;4393778;32;318201;-85
2023/07/05 07:23:23;;;;;;;10.27;8.40;;;;;;;;;;4404051;32;317914;-86
2023/07/05 07:26:05;;;;;;;10.35;8.30;;;;;;;;;;4403398;32;317489;-85
2023/07/05 07:28:32;;;;;;;10.70;9.60;;;;;;;;;;4390645;32;416909;-85
2023/07/05 07:30:59;;;;;;;13.77;8.45;;;;;;;;;;4393453;32;317696;-85
2023/07/05 07:33:27;;;;;;;9.35;8.43;;;;;;;;;;4403147;32;317765;-85
2023/07/05 07:35:54;;;;;;;9.50;7.87;;;;;;;;;;4392628;32;316696;-85
2023/07/05 07:38:21;;;;;;;12.52;9.43;;;;;;;;;;4402626;32;337713;-85
2023/07/05 07:40:49;;;;;;;8.85;7.97;;;;;;;;;;4402690;32;317799;-85
2023/07/05 07:43:17;;;;;;;13.77;8.75;;;;;;;;;;4393042;32;316918;-86
2023/07/05 07:45:46;;;;;;;10.10;9.05;;;;;;;;;;4402642;32;318106;-89
2023/07/05 07:48:13;;;;;;;12.32;8.57;;;;;;;;;;4385268;32;318277;-86
2023/07/05 07:50:48;;;;;;;10.88;8.55;;;;;;;;;;4401824;32;317817;-87
2023/07/05 07:53:15;;;;;;;8.85;7.93;;;;;;;;;;4390970;32;317826;-87
2023/07/05 07:55:43;;;;;;;17.23;9.30;;;;;;;;;;4402015;32;316785;-87
2023/07/05 07:58:10;;;;;;;12.50;9.48;;;;;;;;;;4393256;32;317875;-87
2023/07/05 08:00:39;;;;;;;12.88;8.63;;;;;;;;;;4402475;32;317835;-87
2023/07/05 08:03:07;;;;;;;13.98;9.13;;;;;;;;;;4390449;32;317927;-88
2023/07/05 08:05:34;;;;;;;10.63;9.50;;;;;;;;;;4402620;32;317492;-87
2023/07/05 08:08:03;;;;;;;11.33;9.47;;;;;;;;;;4390379;32;317746;-88
2023/07/05 08:10:30;;;;;;;11.60;9.15;;;;;;;;;;4403106;32;317749;-88
2023/07/05 08:12:58;;;;;;;12.50;9.30;;;;;;;;;;4391782;32;342052;-90
2023/07/05 08:15:25;;;;;;;16.08;9.50;;;;;;;;;;4403354;32;317755;-89
2023/07/05 08:17:54;;;;;;;10.38;9.27;;;;;;;;;;4401410;32;317763;-89
2023/07/05 08:20:21;;;;;;;10.20;9.18;;;;;;;;;;4388665;32;418717;-90
2023/07/05 08:22:49;;;;;;;11.00;9.43;;;;;;;;;;4402007;32;317660;-90
2023/07/05 08:25:16;;;;;;;10.88;8.95;;;;;;;;;;4393287;32;317680;-89
2023/07/05 08:27:44;;;;;;;13.73;8.98;;;;;;;;;;4402441;32;334977;-85
2023/07/05 08:30:12;;;;;;;9.65;8.35;;;;;;;;;;4392067;32;317874;-90
2023/07/05 08:32:39;;;;;;;23.45;9.68;;;;;;;;;;4402737;32;316757;-85
2023/07/05 08:35:09;;;;;;;18.10;11.02;;;;;;;;;;4390869;32;317795;-79
2023/07/05 08:37:37;;;;;;;24.23;10.52;;;;;;;;;;4401809;32;319126;-80
2023/07/05 08:40:07;;;;;;;10.77;9.68;;;;;;;;;;4392817;32;318998;-84
2023/07/05 08:42:48;;;;;;;19.15;11.43;;;;;;;;;;4402946;32;317959;-89
2023/07/05 08:45:22;;;;;;;11.90;9.48;;;;;;;;;;4391946;32;318959;-82
2023/07/05 08:47:52;;;;;;;15.32;10.05;;;;;;;;;;4378053;32;317827;-84
2023/07/05 08:50:34;;;;;;;12.27;10.70;;;;;;;;;;4388835;32;318748;-84
2023/07/05 08:53:06;;;;;;;14.98;11.80;;;;;;;;;;4401009;32;318893;-83
2023/07/05 08:55:47;;;;;;;20.15;11.40;;;;;;;;;;4391700;32;319213;-83
2023/07/05 08:58:21;;;;;;;14.38;10.27;;;;;;;;;;4392391;32;318836;-80
2023/07/05 09:00:54;;;;;;;12.68;10.80;;;;;;;;;;4401919;32;319096;-86
2023/07/05 09:03:28;;;;;;;14.43;10.32;;;;;;;;;;4391043;32;318915;-82
2023/07/05 09:06:20;;;;;;;15.60;10.60;;;;;;;;;;4402084;32;318774;-82
2023/07/05 09:09:09;;;;;;;15.90;10.35;;;;;;;;;;4381400;32;418825;-81
2023/07/05 09:11:46;;;;;;;13.65;10.55;;;;;;;;;;4391219;32;356260;-82
2023/07/05 09:14:24;;;;;;;18.55;11.05;;;;;;;;;;4388468;32;318694;-83
2023/07/05 09:16:59;;;;;;;13.93;10.48;;;;;;;;;;4401578;32;318979;-91
2023/07/05 09:19:39;;;;;;;16.30;11.70;;;;;;;;;;4394261;32;318713;-83
2023/07/05 09:22:14;;;;;;;14.82;10.68;;;;;;;;;;4405464;32;318981;-87
2023/07/05 09:24:43;;;;;;;12.52;10.70;;;;;;;;;;4390783;32;389680;-90
2023/07/05 09:27:13;;;;;;;12.68;10.35;;;;;;;;;;4403871;32;318699;-82
2023/07/05 09:29:47;;;;;;;10.30;9.32;;;;;;;;;;4391552;32;389811;-82
2023/07/05 09:32:19;;;;;;;12.50;11.20;;;;;;;;;;4392419;32;317678;-83
2023/07/05 09:34:50;;;;;;;14.10;9.77;;;;;;;;;;4402655;32;318756;-83
2023/07/05 09:37:22;;;;;;;19.45;10.40;;;;;;;;;;4391763;32;317994;-83
2023/07/05 09:40:11;;;;;;;14.73;10.00;;;;;;;;;;4401194;32;318635;-89
2023/07/05 09:42:45;;;;;;;13.52;10.70;;;;;;;;;;4387662;32;419093;-86
2023/07/05 09:45:14;;;;;;;14.68;11.27;;;;;;;;;;4401707;32;318643;-86
2023/07/05 09:47:42;;;;;;;15.10;10.88;;;;;;;;;;4388373;32;387974;-86
2023/07/05 09:50:16;;;;;;;13.40;10.43;;;;;;;;;;4401651;32;318918;-86
2023/07/05 09:52:47;;;;;;;13.70;11.27;;;;;;;;;;4388649;32;417911;-87
2023/07/05 09:55:17;;;;;;;12.23;10.70;;;;;;;;;;4386805;32;319259;-86
2023/07/05 09:57:47;;;;;;;14.48;10.98;;;;;;;;;;4401524;32;318738;-88
2023/07/05 10:00:29;;;;;;;15.57;11.38;;;;;;;;;;4385655;32;356728;-87
2023/07/05 10:03:03;;;;;;;15.00;11.57;;;;;;;;;;4401737;32;318716;-86
2023/07/05 10:05:31;;;;;;;13.32;11.15;;;;;;;;;;4390964;32;318695;-87
2023/07/05 10:08:02;;;;;;;16.40;11.98;;;;;;;;;;4400617;32;318801;-87
2023/07/05 10:10:35;;;;;;;13.93;11.38;;;;;;;;;;4391659;32;318883;-87
2023/07/05 10:13:12;;;;;;;14.77;11.85;;;;;;;;;;4400438;32;318816;-85
2023/07/05 10:15:43;;;;;;;15.73;11.45;;;;;;;;;;4386849;32;417646;-88
2023/07/05 10:18:26;;;;;;;16.77;11.57;;;;;;;;;;4400497;32;318834;-86
2023/07/05 10:20:54;;;;;;;27.90;12.23;;;;;;;;;;4386724;32;419059;-86
2023/07/05 10:23:24;;;;;;;12.25;10.93;;;;;;;;;;4389431;32;318878;-86
2023/07/05 10:25:53;;;;;;;12.27;11.07;;;;;;;;;;4401720;32;318619;-86
2023/07/05 10:28:28;;;;;;;14.53;11.50;;;;;;;;;;4389978;32;328551;-85
2023/07/05 10:30:59;;;;;;;16.15;10.77;;;;;;;;;;4401064;32;318793;-87
2023/07/05 10:33:29;;;;;;;13.90;12.45;;;;;;;;;;4387885;32;318921;-86
2023/07/05 10:36:03;;;;;;;14.45;11.30;;;;;;;;;;4401270;32;318762;-86
2023/07/05 10:38:34;;;;;;;16.48;12.00;;;;;;;;;;4388326;32;318782;-87
2023/07/05 10:41:14;;;;;;;14.93;12.07;;;;;;;;;;4399244;32;318827;-87
2023/07/05 10:43:42;;;;;;;13.05;11.63;;;;;;;;;;4385827;32;420905;-86
2023/07/05 10:46:11;;;;;;;15.10;12.60;;;;;;;;;;4401213;32;319125;-86
2023/07/05 10:48:42;;;;;;;14.90;12.02;;;;;;;;;;4384782;32;418827;-86
2023/07/05 10:51:21;;;;;;;14.68;11.65;;;;;;;;;;4399763;32;318734;-87
2023/07/05 10:54:03;;;;;;;17.30;11.65;;;;;;;;;;4387845;32;417917;-87
2023/07/05 10:56:34;;;;;;;12.55;11.20;;;;;;;;;;4391073;32;318900;-87
2023/07/05 10:59:05;;;;;;;16.65;12.07;;;;;;;;;;4399649;32;318851;-87
2023/07/05 11:01:38;;;;;;;13.55;12.18;;;;;;;;;;4391085;32;318694;-87
2023/07/05 11:04:11;;;;;;;13.32;12.02;;;;;;;;;;4398976;32;318547;-87
2023/07/05 11:06:40;;;;;;;13.98;12.48;;;;;;;;;;4386506;32;418120;-87
2023/07/05 11:09:10;;;;;;;15.63;12.23;;;;;;;;;;4401610;32;318962;-87
2023/07/05 11:11:43;;;;;;;12.32;11.02;;;;;;;;;;4393014;32;318890;-88
2023/07/05 11:14:14;;;;;;;13.02;11.70;;;;;;;;;;4403855;32;318633;-87
2023/07/05 11:16:43;;;;;;;13.62;11.05;;;;;;;;;;4390147;32;418530;-86
2023/07/05 11:19:14;;;;;;;13.98;10.07;;;;;;;;;;4404303;32;319083;-87
2023/07/05 11:21:44;;;;;;;15.85;11.02;;;;;;;;;;4389969;32;417822;-87
2023/07/05 11:24:14;;;;;;;13.23;11.48;;;;;;;;;;4403237;32;337358;-86
2023/07/05 11:26:44;;;;;;;12.82;11.02;;;;;;;;;;4383554;32;388607;-87
2023/07/05 11:29:51;;;;;;;12.80;11.32;;;;;;;;;;4402639;32;317786;-86
2023/07/05 11:32:19;;;;;;;14.48;11.27;;;;;;;;;;4342398;32;419181;-87
2023/07/05 11:34:49;;;;;;;14.82;11.75;;;;;;;;;;4395911;32;318287;-86
2023/07/05 11:37:42;;;;;;;17.55;11.77;;;;;;;;;;4392304;32;319013;-85
2023/07/05 11:40:59;;;;;;;13.35;12.00;;;;;;;;;;4390284;32;319214;-87
2023/07/05 11:43:36;;;;;;;13.88;11.82;;;;;;;;;;4389607;32;418828;-86
2023/07/05 11:46:04;;;;;;;20.42;12.75;;;;;;;;;;4402276;32;319100;-87
2023/07/05 11:48:43;;;;;;;20.62;12.50;;;;;;;;;;4391572;32;333683;-87
2023/07/05 11:51:15;;;;;;;17.08;12.27;;;;;;;;;;4403604;32;317650;-86
2023/07/05 11:53:45;;;;;;;15.10;13.07;;;;;;;;;;4390541;32;390742;-86
2023/07/05 11:56:14;;;;;;;16.35;12.13;;;;;;;;;;4402431;32;319215;-86
2023/07/05 11:58:47;;;;;;;14.27;12.77;;;;;;;;;;4389560;32;388991;-85
2023/07/05 12:01:21;;;;;;;17.25;13.40;;;;;;;;;;4392750;32;318876;-86
2023/07/05 12:03:53;;;;;;;18.83;13.18;;;;;;;;;;4403241;32;318997;-85
2023/07/05 12:06:23;;;;;;;18.52;12.37;;;;;;;;;;4393595;32;317844;-86
2023/07/05 12:08:57;;;;;;;13.68;12.27;;;;;;;;;;4402915;32;317729;-85
2023/07/05 12:11:35;;;;;;;15.05;13.05;;;;;;;;;;4393232;32;317881;-87
2023/07/05 12:14:05;;;;;;;14.20;12.77;;;;;;;;;;4402634;32;334272;-89
2023/07/05 12:16:33;;;;;;;14.07;12.57;;;;;;;;;;4392931;32;318689;-84
2023/07/05 12:19:01;;;;;;;15.60;13.45;;;;;;;;;;4402256;32;338923;-89
2023/07/05 12:21:33;;;;;;;17.43;12.73;;;;;;;;;;4390738;32;319019;-89
2023/07/05 12:24:03;;;;;;;16.12;12.10;;;;;;;;;;4402970;32;317875;-89
2023/07/05 12:26:32;;;;;;;17.70;11.65;;;;;;;;;;4391581;32;318905;-89
2023/07/05 12:29:03;;;;;;;15.73;12.35;;;;;;;;;;4401654;32;318655;-89
2023/07/05 12:31:32;;;;;;;16.85;14.15;;;;;;;;;;4391216;32;319058;-89
2023/07/05 12:34:03;;;;;;;16.45;12.27;;;;;;;;;;4402784;32;318752;-89
2023/07/05 12:36:31;;;;;;;14.13;12.20;;;;;;;;;;4390669;32;318989;-84
2023/07/05 12:39:09;;;;;;;13.88;12.43;;;;;;;;;;4401891;32;346433;-89
2023/07/05 12:41:36;;;;;;;20.90;13.23;;;;;;;;;;4393030;32;319113;-84
2023/07/05 12:44:05;;;;;;;13.52;12.23;;;;;;;;;;4401316;32;318818;-91
2023/07/05 12:46:36;;;;;;;14.63;12.65;;;;;;;;;;4391025;32;318990;-91
2023/07/05 12:49:12;;;;;;;16.75;12.55;;;;;;;;;;4402596;32;318673;-91
2023/07/05 12:51:49;;;;;;;17.92;13.55;;;;;;;;;;4389384;32;417570;-84
2023/07/05 12:54:17;;;;;;;15.88;12.25;;;;;;;;;;4391320;32;318986;-90
2023/07/05 12:56:47;;;;;;;13.13;11.85;;;;;;;;;;4401864;32;319000;-90
2023/07/05 12:59:27;;;;;;;14.10;12.65;;;;;;;;;;4391316;32;319098;-90
2023/07/05 13:01:56;;;;;;;15.13;12.98;;;;;;;;;;4400715;32;318947;-91
2023/07/05 13:04:25;;;;;;;15.55;13.90;;;;;;;;;;4391082;32;318813;-86
2023/07/05 13:06:56;;;;;;;40.08;13.27;;;;;;;;;;4402065;32;319044;-85
2023/07/05 13:09:28;;;;;;;20.02;12.43;;;;;;;;;;4390657;32;318939;-86
2023/07/05 13:11:58;;;;;;;15.82;12.75;;;;;;;;;;4399461;32;319026;-90
2023/07/05 13:14:27;;;;;;;16.23;12.63;;;;;;;;;;4391053;32;319031;-90
2023/07/05 13:16:59;;;;;;;17.33;8.13;;;;;;;;;;4399691;32;318896;-86
2023/07/05 13:19:42;;;;;;;20.45;8.23;;;;;;;;;;4392268;32;317696;-86
2023/07/05 13:22:25;;;;;;;18.55;8.32;;;;;;;;;;4400991;32;317679;-89
2023/07/05 13:24:53;;;;;;;17.05;6.05;;;;;;;;;;4386272;32;418098;-86
2023/07/05 13:27:23;;;;;;;10.55;6.03;;;;;;;;;;4390389;32;318116;-86
2023/07/05 13:29:50;;;;;;;13.30;7.12;;;;;;;;;;4401084;32;317744;-83
2023/07/05 13:32:28;;;;;;;9.23;7.30;;;;;;;;;;4390119;32;317826;-85
2023/07/05 13:34:56;;;;;;;7.93;7.22;;;;;;;;;;4400963;32;317003;-83
2023/07/05 13:37:27;;;;;;;19.80;8.43;;;;;;;;;;4391565;32;317191;-88
2023/07/05 13:39:58;;;;;;;26.30;12.85;;;;;;;;;;4402077;32;317931;-81
2023/07/05 13:42:26;;;;;;;13.65;9.73;;;;;;;;;;4390957;32;319278;-82
2023/07/05 13:44:54;;;;;;;15.80;10.48;;;;;;;;;;4400391;32;317934;-81
2023/07/05 13:47:21;;;;;;;15.48;9.38;;;;;;;;;;4391187;32;318938;-82
2023/07/05 13:49:50;;;;;;;10.30;8.18;;;;;;;;;;4400695;32;317980;-81
2023/07/05 13:52:20;;;;;;;11.32;9.35;;;;;;;;;;4374141;32;317855;-80
2023/07/05 13:54:49;;;;;;;10.55;7.93;;;;;;;;;;4390618;32;352085;-80
2023/07/05 13:57:17;;;;;;;12.05;8.10;;;;;;;;;;4401461;32;317835;-80
2023/07/05 13:59:44;;;;;;;12.07;8.05;;;;;;;;;;4391543;32;317842;-80
2023/07/05 14:02:29;;;;;;;13.90;7.82;;;;;;;;;;4401516;32;317993;-80
2023/07/05 14:04:59;;;;;;;17.77;8.15;;;;;;;;;;4389640;32;387294;-81
2023/07/05 14:07:26;;;;;;;13.23;8.05;;;;;;;;;;4389923;32;317978;-81
2023/07/05 14:09:54;;;;;;;13.93;8.85;;;;;;;;;;4400701;32;317879;-80
2023/07/05 14:12:22;;;;;;;14.27;9.07;;;;;;;;;;4401648;32;318072;-81
2023/07/05 14:14:50;;;;;;;19.35;8.20;;;;;;;;;;4390546;32;317761;-79
2023/07/05 14:17:19;;;;;;;19.70;9.73;;;;;;;;;;4398999;32;317882;-79
2023/07/05 14:19:49;;;;;;;14.13;9.25;;;;;;;;;;4390522;32;317944;-81
2023/07/05 14:22:21;;;;;;;13.57;8.15;;;;;;;;;;4400369;32;317676;-82
2023/07/05 14:24:49;;;;;;;11.57;7.78;;;;;;;;;;4391445;32;317738;-83
2023/07/05 14:27:20;;;;;;;10.18;7.70;;;;;;;;;;4400005;32;350081;-84
2023/07/05 14:29:47;;;;;;;9.23;7.60;;;;;;;;;;4390252;32;317769;-81
2023/07/05 14:32:15;;;;;;;10.20;7.65;;;;;;;;;;4399889;32;316870;-82
2023/07/05 14:34:44;;;;;;;12.50;7.70;;;;;;;;;;4388561;32;317750;-80
2023/07/05 14:37:12;;;;;;;9.55;7.47;;;;;;;;;;4401185;32;318023;-80